N713DN KMCI-KOMA
Flight info
| Callsign | N713DN |
|---|---|
| Flight time | 0h 50m |
| Altitude | 4500 |
| Route | VFR NORTH |
| Aircraft | COL4/L-DGV/C |
Departure
| Time | 2026-05-07 15:38 |
|---|---|
| Airport | Kansas City International Airport (KMCI) |
Arrival
| Time | 2026-05-07 16:29 |
|---|---|
| Airport | Eppley Airfield (KOMA) |
| Time | Latitude | Longitude | Altitude | Speed | Heading |
|---|---|---|---|---|---|
| 2026-05-07 15:00 | 39.31327 | -94.71814 | 1026 ft | 0 kts | 13° |
| 2026-05-07 15:29 | 39.31334 | -94.71818 | 1026 ft | 0 kts | 300° |
| 2026-05-07 15:29 | 39.31334 | -94.71821 | 1026 ft | 0 kts | 281° |
| 2026-05-07 15:34 | 39.31334 | -94.71823 | 1026 ft | 1 kts | 280° |
| 2026-05-07 15:34 | 39.31332 | -94.71867 | 1026 ft | 7 kts | 258° |
| 2026-05-07 15:35 | 39.31336 | -94.71951 | 1026 ft | 11 kts | 281° |
| 2026-05-07 15:35 | 39.31381 | -94.72047 | 1026 ft | 15 kts | 359° |
| 2026-05-07 15:35 | 39.31504 | -94.72018 | 1026 ft | 20 kts | 7° |
| 2026-05-07 15:35 | 39.31661 | -94.71972 | 1026 ft | 25 kts | 9° |
| 2026-05-07 15:36 | 39.31839 | -94.71917 | 1026 ft | 27 kts | 12° |
| 2026-05-07 15:36 | 39.32014 | -94.71860 | 1026 ft | 19 kts | 11° |
| 2026-05-07 15:36 | 39.32124 | -94.71835 | 1026 ft | 10 kts | 5° |
| 2026-05-07 15:36 | 39.32171 | -94.71856 | 1026 ft | 6 kts | 289° |
| 2026-05-07 15:37 | 39.32174 | -94.71875 | 1026 ft | 2 kts | 278° |
| 2026-05-07 15:37 | 39.32181 | -94.71923 | 1026 ft | 8 kts | 287° |
| 2026-05-07 15:37 | 39.32201 | -94.72031 | 1026 ft | 16 kts | 273° |
| 2026-05-07 15:37 | 39.32119 | -94.72086 | 1026 ft | 17 kts | 221° |
| 2026-05-07 15:38 | 39.31941 | -94.72163 | 1026 ft | 54 kts | 193° |
| 2026-05-07 15:38 | 39.31382 | -94.72317 | 1153 ft | 96 kts | 200° |
| 2026-05-07 15:38 | 39.30727 | -94.72527 | 1554 ft | 99 kts | 197° |
| 2026-05-07 15:38 | 39.30075 | -94.72660 | 1981 ft | 94 kts | 198° |
| 2026-05-07 15:39 | 39.29445 | -94.72780 | 2430 ft | 89 kts | 195° |
| 2026-05-07 15:39 | 39.28756 | -94.72831 | 2750 ft | 85 kts | 197° |
| 2026-05-07 15:39 | 39.28226 | -94.73149 | 2819 ft | 88 kts | 237° |
| 2026-05-07 15:39 | 39.28140 | -94.73899 | 3014 ft | 89 kts | 284° |
| 2026-05-07 15:40 | 39.28635 | -94.74438 | 3182 ft | 107 kts | 330° |
| 2026-05-07 15:40 | 39.29475 | -94.74551 | 3311 ft | 120 kts | 348° |
| 2026-05-07 15:40 | 39.30380 | -94.74461 | 3597 ft | 121 kts | 356° |
| 2026-05-07 15:40 | 39.31320 | -94.74292 | 3932 ft | 125 kts | 356° |
| 2026-05-07 15:41 | 39.32240 | -94.74194 | 4316 ft | 123 kts | 351° |
| 2026-05-07 15:41 | 39.33138 | -94.74185 | 4705 ft | 120 kts | 347° |
| 2026-05-07 15:41 | 39.34029 | -94.74279 | 5021 ft | 115 kts | 324° |
| 2026-05-07 15:41 | 39.34709 | -94.74910 | 5386 ft | 113 kts | 317° |
| 2026-05-07 15:42 | 39.35530 | -94.75259 | 5698 ft | 120 kts | 335° |
| 2026-05-07 15:42 | 39.36475 | -94.75403 | 5933 ft | 127 kts | 341° |
| 2026-05-07 15:42 | 39.37438 | -94.75408 | 6239 ft | 130 kts | 349° |
| 2026-05-07 15:42 | 39.38411 | -94.75347 | 6483 ft | 131 kts | 345° |
| 2026-05-07 15:43 | 39.39421 | -94.75607 | 6477 ft | 139 kts | 341° |
| 2026-05-07 15:43 | 39.40458 | -94.75510 | 6556 ft | 143 kts | 358° |
| 2026-05-07 15:43 | 39.41510 | -94.75219 | 6562 ft | 144 kts | 1° |
| 2026-05-07 15:43 | 39.42553 | -94.74838 | 6527 ft | 150 kts | 7° |
| 2026-05-07 15:44 | 39.43619 | -94.74355 | 6553 ft | 149 kts | 10° |
| 2026-05-07 15:44 | 39.44665 | -94.73937 | 6608 ft | 139 kts | 358° |
| 2026-05-07 15:44 | 39.45708 | -94.73897 | 6509 ft | 134 kts | 334° |
| 2026-05-07 15:44 | 39.46500 | -94.74555 | 6415 ft | 118 kts | 297° |
| 2026-05-07 15:45 | 39.46644 | -94.75560 | 6401 ft | 107 kts | 253° |
| 2026-05-07 15:45 | 39.46097 | -94.76302 | 6402 ft | 118 kts | 212° |
| 2026-05-07 15:45 | 39.45336 | -94.76763 | 6393 ft | 108 kts | 239° |
| 2026-05-07 15:45 | 39.45280 | -94.77680 | 6405 ft | 109 kts | 290° |
| 2026-05-07 15:46 | 39.47002 | -94.78112 | 6408 ft | 143 kts | 356° |
| 2026-05-07 15:46 | 39.47303 | -94.78054 | 6404 ft | 143 kts | 355° |
| 2026-05-07 15:46 | 39.47989 | -94.77956 | 6396 ft | 140 kts | 351° |
| 2026-05-07 15:47 | 39.48325 | -94.77948 | 6405 ft | 143 kts | 345° |
| 2026-05-07 15:47 | 39.49432 | -94.78063 | 6417 ft | 156 kts | 341° |
| 2026-05-07 15:47 | 39.50658 | -94.78290 | 6411 ft | 165 kts | 339° |
| 2026-05-07 15:47 | 39.51902 | -94.78585 | 6424 ft | 170 kts | 339° |
| 2026-05-07 15:48 | 39.53153 | -94.78919 | 6406 ft | 175 kts | 337° |
| 2026-05-07 15:48 | 39.54448 | -94.79312 | 6371 ft | 180 kts | 335° |
| 2026-05-07 15:48 | 39.55821 | -94.79756 | 6303 ft | 185 kts | 336° |
| 2026-05-07 15:48 | 39.57228 | -94.80209 | 6262 ft | 187 kts | 336° |
| 2026-05-07 15:49 | 39.58607 | -94.80652 | 6292 ft | 184 kts | 336° |
| 2026-05-07 15:49 | 39.59947 | -94.81091 | 6316 ft | 183 kts | 335° |
| 2026-05-07 15:49 | 39.61259 | -94.81525 | 6343 ft | 184 kts | 336° |
| 2026-05-07 15:49 | 39.62537 | -94.81888 | 6372 ft | 184 kts | 337° |
| 2026-05-07 15:50 | 39.63921 | -94.82270 | 6404 ft | 184 kts | 338° |
| 2026-05-07 15:50 | 39.65268 | -94.82636 | 6439 ft | 183 kts | 338° |
| 2026-05-07 15:50 | 39.66614 | -94.83006 | 6466 ft | 183 kts | 338° |
| 2026-05-07 15:50 | 39.67958 | -94.83374 | 6482 ft | 184 kts | 338° |
| 2026-05-07 15:51 | 39.69281 | -94.83731 | 6485 ft | 185 kts | 338° |
| 2026-05-07 15:51 | 39.70550 | -94.84077 | 6479 ft | 185 kts | 338° |
| 2026-05-07 15:51 | 39.71798 | -94.84422 | 6486 ft | 185 kts | 338° |
| 2026-05-07 15:51 | 39.73067 | -94.84769 | 6481 ft | 186 kts | 338° |
| 2026-05-07 15:52 | 39.74354 | -94.85120 | 6485 ft | 186 kts | 338° |
| 2026-05-07 15:52 | 39.75711 | -94.85485 | 6483 ft | 186 kts | 338° |
| 2026-05-07 15:52 | 39.77143 | -94.85877 | 6483 ft | 185 kts | 338° |
| 2026-05-07 15:52 | 39.78468 | -94.86240 | 6483 ft | 185 kts | 338° |
| 2026-05-07 15:53 | 39.79839 | -94.86634 | 6481 ft | 183 kts | 335° |
| 2026-05-07 15:53 | 39.81186 | -94.87103 | 6482 ft | 183 kts | 335° |
| 2026-05-07 15:53 | 39.82529 | -94.87588 | 6482 ft | 184 kts | 335° |
| 2026-05-07 15:53 | 39.83854 | -94.88065 | 6483 ft | 184 kts | 334° |
| 2026-05-07 15:54 | 39.85149 | -94.88535 | 6486 ft | 184 kts | 334° |
| 2026-05-07 15:54 | 39.86471 | -94.89017 | 6482 ft | 184 kts | 334° |
| 2026-05-07 15:54 | 39.87815 | -94.89507 | 6483 ft | 184 kts | 334° |
| 2026-05-07 15:54 | 39.89149 | -94.89995 | 6482 ft | 184 kts | 334° |
| 2026-05-07 15:55 | 39.90472 | -94.90475 | 6482 ft | 183 kts | 335° |
| 2026-05-07 15:55 | 39.91788 | -94.90955 | 6484 ft | 183 kts | 334° |
| 2026-05-07 15:55 | 39.93042 | -94.91415 | 6487 ft | 183 kts | 334° |
| 2026-05-07 15:55 | 39.94271 | -94.91863 | 6480 ft | 183 kts | 334° |
| 2026-05-07 15:56 | 39.95512 | -94.92321 | 6481 ft | 181 kts | 332° |
| 2026-05-07 15:56 | 39.96763 | -94.93059 | 6482 ft | 177 kts | 324° |
| 2026-05-07 15:56 | 39.97954 | -94.93842 | 6485 ft | 176 kts | 324° |
| 2026-05-07 15:56 | 39.99142 | -94.94641 | 6483 ft | 176 kts | 323° |
| 2026-05-07 15:57 | 40.00314 | -94.95439 | 6482 ft | 176 kts | 323° |
| 2026-05-07 15:57 | 40.01487 | -94.96238 | 6483 ft | 176 kts | 324° |
| 2026-05-07 15:57 | 40.02679 | -94.97052 | 6475 ft | 176 kts | 324° |
| 2026-05-07 15:57 | 40.03862 | -94.97861 | 6477 ft | 176 kts | 323° |
| 2026-05-07 15:58 | 40.05034 | -94.98662 | 6468 ft | 176 kts | 324° |
| 2026-05-07 15:58 | 40.06108 | -94.99395 | 6463 ft | 176 kts | 323° |
| 2026-05-07 15:58 | 40.07268 | -95.00193 | 6461 ft | 175 kts | 323° |
| 2026-05-07 15:58 | 40.08407 | -95.00975 | 6460 ft | 176 kts | 323° |
| 2026-05-07 15:59 | 40.09562 | -95.01771 | 6456 ft | 175 kts | 323° |
| 2026-05-07 15:59 | 40.10723 | -95.02566 | 6451 ft | 175 kts | 323° |
| 2026-05-07 15:59 | 40.11904 | -95.03378 | 6449 ft | 176 kts | 323° |
| 2026-05-07 15:59 | 40.13046 | -95.04164 | 6446 ft | 176 kts | 323° |
| 2026-05-07 16:00 | 40.14240 | -95.04987 | 6442 ft | 176 kts | 323° |
| 2026-05-07 16:00 | 40.15353 | -95.05750 | 6439 ft | 176 kts | 323° |
| 2026-05-07 16:00 | 40.16441 | -95.06489 | 6436 ft | 177 kts | 325° |
| 2026-05-07 16:00 | 40.17672 | -95.07257 | 6436 ft | 177 kts | 326° |
| 2026-05-07 16:01 | 40.18882 | -95.08005 | 6437 ft | 177 kts | 326° |
| 2026-05-07 16:01 | 40.20003 | -95.08695 | 6438 ft | 177 kts | 326° |
| 2026-05-07 16:01 | 40.21129 | -95.09386 | 6437 ft | 177 kts | 326° |
| 2026-05-07 16:01 | 40.22234 | -95.10067 | 6437 ft | 177 kts | 326° |
| 2026-05-07 16:02 | 40.23395 | -95.10797 | 6437 ft | 177 kts | 326° |
| 2026-05-07 16:02 | 40.24600 | -95.11539 | 6438 ft | 177 kts | 326° |
| 2026-05-07 16:02 | 40.25808 | -95.12280 | 6437 ft | 176 kts | 326° |
| 2026-05-07 16:02 | 40.26952 | -95.12985 | 6437 ft | 176 kts | 326° |
| 2026-05-07 16:03 | 40.28106 | -95.13695 | 6437 ft | 177 kts | 326° |
| 2026-05-07 16:03 | 40.29287 | -95.14420 | 6435 ft | 177 kts | 326° |
| 2026-05-07 16:03 | 40.30454 | -95.15139 | 6436 ft | 177 kts | 326° |
| 2026-05-07 16:03 | 40.31590 | -95.15840 | 6436 ft | 177 kts | 326° |
| 2026-05-07 16:04 | 40.32790 | -95.16578 | 6434 ft | 177 kts | 326° |
| 2026-05-07 16:04 | 40.34029 | -95.17342 | 6432 ft | 177 kts | 326° |
| 2026-05-07 16:04 | 40.35186 | -95.18054 | 6431 ft | 177 kts | 326° |
| 2026-05-07 16:04 | 40.36357 | -95.18779 | 6428 ft | 177 kts | 326° |
| 2026-05-07 16:05 | 40.37580 | -95.19534 | 6427 ft | 177 kts | 326° |
| 2026-05-07 16:05 | 40.38742 | -95.20353 | 6425 ft | 175 kts | 322° |
| 2026-05-07 16:05 | 40.39883 | -95.21223 | 6423 ft | 175 kts | 321° |
| 2026-05-07 16:05 | 40.41018 | -95.22095 | 6412 ft | 176 kts | 322° |
| 2026-05-07 16:06 | 40.42136 | -95.22958 | 6408 ft | 176 kts | 321° |
| 2026-05-07 16:06 | 40.43232 | -95.23806 | 6405 ft | 176 kts | 321° |
| 2026-05-07 16:06 | 40.44362 | -95.24684 | 6405 ft | 176 kts | 321° |
| 2026-05-07 16:06 | 40.45502 | -95.25568 | 6399 ft | 176 kts | 321° |
| 2026-05-07 16:07 | 40.46603 | -95.26425 | 6395 ft | 175 kts | 321° |
| 2026-05-07 16:07 | 40.47695 | -95.27274 | 6391 ft | 175 kts | 322° |
| 2026-05-07 16:07 | 40.48788 | -95.28127 | 6391 ft | 175 kts | 322° |
| 2026-05-07 16:07 | 40.49848 | -95.28951 | 6389 ft | 175 kts | 321° |
| 2026-05-07 16:08 | 40.50947 | -95.29806 | 6387 ft | 174 kts | 322° |
| 2026-05-07 16:08 | 40.52031 | -95.30652 | 6387 ft | 174 kts | 322° |
| 2026-05-07 16:08 | 40.53138 | -95.31496 | 6385 ft | 175 kts | 324° |
| 2026-05-07 16:08 | 40.54291 | -95.32285 | 6387 ft | 175 kts | 325° |
| 2026-05-07 16:09 | 40.55463 | -95.33072 | 6387 ft | 175 kts | 324° |
| 2026-05-07 16:09 | 40.56614 | -95.33838 | 6387 ft | 175 kts | 325° |
| 2026-05-07 16:09 | 40.57757 | -95.34603 | 6387 ft | 175 kts | 325° |
| 2026-05-07 16:09 | 40.58947 | -95.35396 | 6389 ft | 176 kts | 325° |
| 2026-05-07 16:10 | 40.60126 | -95.36180 | 6386 ft | 176 kts | 325° |
| 2026-05-07 16:10 | 40.61301 | -95.36965 | 6386 ft | 175 kts | 325° |
| 2026-05-07 16:10 | 40.62464 | -95.37740 | 6386 ft | 175 kts | 325° |
| 2026-05-07 16:10 | 40.63623 | -95.38511 | 6384 ft | 175 kts | 325° |
| 2026-05-07 16:11 | 40.64762 | -95.39271 | 6386 ft | 175 kts | 325° |
| 2026-05-07 16:11 | 40.65924 | -95.40047 | 6388 ft | 175 kts | 325° |
| 2026-05-07 16:11 | 40.67080 | -95.40819 | 6386 ft | 175 kts | 324° |
| 2026-05-07 16:11 | 40.68274 | -95.41616 | 6385 ft | 175 kts | 325° |
| 2026-05-07 16:12 | 40.69456 | -95.42404 | 6389 ft | 175 kts | 325° |
| 2026-05-07 16:12 | 40.70645 | -95.43198 | 6388 ft | 175 kts | 325° |
| 2026-05-07 16:12 | 40.71791 | -95.43968 | 6389 ft | 175 kts | 326° |
| 2026-05-07 16:12 | 40.72983 | -95.44762 | 6386 ft | 175 kts | 326° |
| 2026-05-07 16:13 | 40.74146 | -95.45512 | 6387 ft | 175 kts | 326° |
| 2026-05-07 16:13 | 40.75235 | -95.46207 | 6385 ft | 176 kts | 326° |
| 2026-05-07 16:13 | 40.76342 | -95.46915 | 6387 ft | 176 kts | 326° |
| 2026-05-07 16:13 | 40.77433 | -95.47612 | 6385 ft | 176 kts | 326° |
| 2026-05-07 16:14 | 40.78582 | -95.48350 | 6388 ft | 176 kts | 326° |
| 2026-05-07 16:14 | 40.79756 | -95.49100 | 6387 ft | 176 kts | 326° |
| 2026-05-07 16:14 | 40.80959 | -95.49868 | 6387 ft | 176 kts | 326° |
| 2026-05-07 16:14 | 40.82133 | -95.50616 | 6484 ft | 171 kts | 326° |
| 2026-05-07 16:15 | 40.83332 | -95.51388 | 6504 ft | 171 kts | 326° |
| 2026-05-07 16:15 | 40.84527 | -95.52151 | 6507 ft | 173 kts | 326° |
| 2026-05-07 16:15 | 40.85645 | -95.52869 | 6506 ft | 174 kts | 326° |
| 2026-05-07 16:15 | 40.86844 | -95.53641 | 6507 ft | 175 kts | 326° |
| 2026-05-07 16:16 | 40.88021 | -95.54394 | 6504 ft | 175 kts | 326° |
| 2026-05-07 16:16 | 40.89109 | -95.55091 | 6505 ft | 176 kts | 326° |
| 2026-05-07 16:16 | 40.90309 | -95.55861 | 6505 ft | 175 kts | 326° |
| 2026-05-07 16:16 | 40.91454 | -95.56597 | 6508 ft | 175 kts | 326° |
| 2026-05-07 16:17 | 40.92566 | -95.57310 | 6505 ft | 176 kts | 326° |
| 2026-05-07 16:17 | 40.93746 | -95.58069 | 6505 ft | 177 kts | 326° |
| 2026-05-07 16:17 | 40.94926 | -95.58833 | 6504 ft | 176 kts | 326° |
| 2026-05-07 16:17 | 40.96116 | -95.59631 | 6504 ft | 176 kts | 325° |
| 2026-05-07 16:18 | 40.97308 | -95.60442 | 6506 ft | 176 kts | 324° |
| 2026-05-07 16:18 | 40.98495 | -95.61247 | 6505 ft | 177 kts | 324° |
| 2026-05-07 16:18 | 40.99680 | -95.62054 | 6502 ft | 177 kts | 324° |
| 2026-05-07 16:18 | 41.00880 | -95.62872 | 6502 ft | 177 kts | 325° |
| 2026-05-07 16:19 | 41.02067 | -95.63678 | 6498 ft | 177 kts | 324° |
| 2026-05-07 16:19 | 41.03276 | -95.64504 | 6498 ft | 178 kts | 324° |
| 2026-05-07 16:19 | 41.04478 | -95.65320 | 6500 ft | 177 kts | 323° |
| 2026-05-07 16:19 | 41.05597 | -95.66084 | 6501 ft | 177 kts | 323° |
| 2026-05-07 16:20 | 41.06771 | -95.66888 | 6501 ft | 178 kts | 324° |
| 2026-05-07 16:20 | 41.07941 | -95.67685 | 6496 ft | 179 kts | 323° |
| 2026-05-07 16:20 | 41.09135 | -95.68497 | 6495 ft | 175 kts | 323° |
| 2026-05-07 16:20 | 41.10285 | -95.69283 | 6494 ft | 169 kts | 323° |
| 2026-05-07 16:21 | 41.11381 | -95.70025 | 6484 ft | 158 kts | 322° |
| 2026-05-07 16:21 | 41.12384 | -95.70709 | 6479 ft | 146 kts | 322° |
| 2026-05-07 16:21 | 41.13261 | -95.71301 | 6463 ft | 125 kts | 321° |
| 2026-05-07 16:21 | 41.14002 | -95.71790 | 6449 ft | 96 kts | 317° |
| 2026-05-07 16:22 | 41.14587 | -95.72179 | 6429 ft | 81 kts | 315° |
| 2026-05-07 16:22 | 41.15089 | -95.72522 | 6426 ft | 75 kts | 313° |
| 2026-05-07 16:22 | 41.15704 | -95.73027 | 6013 ft | 107 kts | 313° |
| 2026-05-07 16:22 | 41.16483 | -95.73782 | 5355 ft | 133 kts | 313° |
| 2026-05-07 16:23 | 41.17233 | -95.74532 | 5060 ft | 115 kts | 312° |
| 2026-05-07 16:23 | 41.17915 | -95.75208 | 4802 ft | 109 kts | 311° |
| 2026-05-07 16:23 | 41.18604 | -95.75907 | 4631 ft | 114 kts | 311° |
| 2026-05-07 16:23 | 41.19267 | -95.76584 | 4432 ft | 119 kts | 313° |
| 2026-05-07 16:24 | 41.19945 | -95.77309 | 4271 ft | 106 kts | 310° |
| 2026-05-07 16:24 | 41.20557 | -95.77922 | 4139 ft | 97 kts | 313° |
| 2026-05-07 16:24 | 41.21125 | -95.78507 | 3974 ft | 93 kts | 308° |
| 2026-05-07 16:24 | 41.21663 | -95.79161 | 3789 ft | 92 kts | 308° |
| 2026-05-07 16:25 | 41.22163 | -95.79759 | 3659 ft | 90 kts | 307° |
| 2026-05-07 16:25 | 41.22603 | -95.80335 | 3542 ft | 87 kts | 303° |
| 2026-05-07 16:25 | 41.23004 | -95.80962 | 3359 ft | 93 kts | 301° |
| 2026-05-07 16:25 | 41.23445 | -95.81601 | 3208 ft | 92 kts | 307° |
| 2026-05-07 16:26 | 41.23899 | -95.82210 | 3007 ft | 96 kts | 307° |
| 2026-05-07 16:26 | 41.24382 | -95.82826 | 2851 ft | 93 kts | 310° |
| 2026-05-07 16:26 | 41.24855 | -95.83415 | 2662 ft | 95 kts | 309° |
| 2026-05-07 16:26 | 41.25181 | -95.83833 | 2528 ft | 95 kts | 310° |
| 2026-05-07 16:27 | 41.25816 | -95.84658 | 2294 ft | 100 kts | 313° |
| 2026-05-07 16:27 | 41.26354 | -95.85281 | 2094 ft | 102 kts | 317° |
| 2026-05-07 16:27 | 41.26928 | -95.85870 | 1871 ft | 103 kts | 320° |
| 2026-05-07 16:27 | 41.27521 | -95.86450 | 1650 ft | 102 kts | 322° |
| 2026-05-07 16:28 | 41.28114 | -95.87002 | 1393 ft | 104 kts | 322° |
| 2026-05-07 16:28 | 41.28709 | -95.87566 | 1208 ft | 107 kts | 324° |
| 2026-05-07 16:28 | 41.29316 | -95.88115 | 1068 ft | 103 kts | 323° |
| 2026-05-07 16:28 | 41.29922 | -95.88681 | 991 ft | 87 kts | 323° |
| 2026-05-07 16:29 | 41.30371 | -95.89115 | 987 ft | 53 kts | 319° |
| 2026-05-07 16:29 | 41.30608 | -95.89285 | 987 ft | 26 kts | 23° |
| 2026-05-07 16:29 | 41.30659 | -95.89218 | 987 ft | 0 kts | 51° |
| 2026-05-07 16:30 | 41.30661 | -95.89215 | 987 ft | 2 kts | 57° |
| 2026-05-07 16:30 | 41.30672 | -95.89160 | 987 ft | 9 kts | 95° |
| 2026-05-07 16:30 | 41.30612 | -95.89071 | 987 ft | 15 kts | 144° |
| 2026-05-07 16:31 | 41.30506 | -95.88970 | 987 ft | 20 kts | 143° |
| 2026-05-07 16:31 | 41.30373 | -95.88845 | 987 ft | 23 kts | 142° |
| 2026-05-07 16:31 | 41.30330 | -95.88714 | 987 ft | 15 kts | 141° |
| 2026-05-07 16:31 | 41.30300 | -95.88615 | 987 ft | 15 kts | 50° |
| 2026-05-07 16:32 | 41.30297 | -95.88581 | 987 ft | 0 kts | 236° |